Time;durP1;ratioP1;P1;durP2;ratioP2;P2;SDS_P1;SDS_P2;PMS_P1;PMS_P2;Temp;Humidity;BMP_temperature;BMP_pressure;BME280_temperature;BME280_humidity;BME280_pressure;Samples;Min_cycle;Max_cycle;Signal;HPM_P1;HPM_P2
2022/08/31 00:05:36;;;;;;;;;;;;;;;16.91;69.79;101974.91;5051629;28;20043;-55
2022/08/31 00:08:01;;;;;;;15.75;8.70;;;;;;;16.82;71.52;101979.63;5051359;28;19951;-54
2022/08/31 00:10:28;;;;;;;14.13;8.73;;;;;;;16.79;71.77;101978.31;5051666;28;20060;-56
2022/08/31 00:12:54;;;;;;;13.88;8.25;;;;;;;16.74;72.03;101981.25;5050992;28;20033;-56
2022/08/31 00:15:21;;;;;;;13.30;8.40;;;;;;;16.71;72.05;101986.66;5051283;28;20029;-54
2022/08/31 00:17:46;;;;;;;15.27;8.75;;;;;;;16.67;72.18;101981.72;5050834;28;20080;-55
2022/08/31 00:20:14;;;;;;;13.57;8.60;;;;;;;16.63;72.46;101977.88;5050508;28;20055;-56
2022/08/31 00:22:39;;;;;;;16.00;8.68;;;;;;;16.61;72.71;101985.78;5050764;28;20047;-55
2022/08/31 00:25:05;;;;;;;14.48;8.60;;;;;;;16.57;72.84;101987.56;5051796;28;20025;-57
2022/08/31 00:27:30;;;;;;;12.43;8.57;;;;;;;16.55;73.04;101986.25;5051898;28;20487;-56
2022/08/31 00:29:55;;;;;;;14.13;8.80;;;;;;;16.51;72.98;101978.50;5050901;28;20024;-57
2022/08/31 00:32:21;;;;;;;14.02;8.63;;;;;;;16.51;73.03;101980.47;5050748;28;20029;-56
2022/08/31 00:34:46;;;;;;;13.18;8.52;;;;;;;16.46;73.38;101980.59;5051120;28;20017;-55
2022/08/31 00:37:11;;;;;;;14.30;8.70;;;;;;;16.46;73.45;101975.84;5051071;28;20461;-55
2022/08/31 00:39:37;;;;;;;13.98;8.50;;;;;;;16.42;73.50;101974.81;5051481;28;20017;-55
2022/08/31 00:42:07;;;;;;;15.95;9.40;;;;;;;16.38;73.72;101974.63;5051332;28;20453;-53
2022/08/31 00:44:32;;;;;;;13.35;8.40;;;;;;;16.36;73.73;101971.31;5050910;28;20025;-54
2022/08/31 00:46:57;;;;;;;17.52;9.00;;;;;;;16.32;73.74;101967.53;5050963;28;20025;-54
2022/08/31 00:49:29;;;;;;;15.15;9.05;;;;;;;16.32;74.01;101978.72;5050507;28;20541;-55
2022/08/31 00:52:02;;;;;;;14.52;8.75;;;;;;;16.31;74.20;101979.84;5051190;28;20476;-54
2022/08/31 00:54:34;;;;;;;14.73;8.80;;;;;;;16.25;74.27;101977.50;5051208;28;20104;-54
2022/08/31 00:57:00;;;;;;;13.77;8.60;;;;;;;16.22;74.60;101981.75;5043678;28;20028;-55
2022/08/31 00:59:26;;;;;;;15.35;9.00;;;;;;;16.20;74.67;101972.84;5050972;28;20021;-55
2022/08/31 01:01:51;;;;;;;14.60;9.13;;;;;;;16.15;75.03;101976.59;5049957;28;20033;-53
2022/08/31 01:04:17;;;;;;;14.93;9.05;;;;;;;16.13;75.29;101972.50;5049732;28;20116;-55
2022/08/31 01:06:43;;;;;;;15.23;9.13;;;;;;;16.08;75.40;101962.28;5049933;28;20033;-54
2022/08/31 01:09:10;;;;;;;15.18;9.00;;;;;;;16.05;75.35;101974.91;5051196;28;20025;-54
2022/08/31 01:11:37;;;;;;;15.80;9.25;;;;;;;16.02;75.43;101964.34;5050902;28;20029;-54
2022/08/31 01:14:03;;;;;;;14.15;8.90;;;;;;;16.03;75.34;101959.59;5050969;28;20028;-54
2022/08/31 01:16:43;;;;;;;14.15;9.30;;;;;;;15.97;75.52;101960.88;5065122;22;20380;-59
2022/08/31 01:19:20;;;;;;;16.45;9.27;;;;;;;15.97;75.56;101966.44;5036274;28;20044;-59
2022/08/31 01:22:23;;;;;;;14.75;8.90;;;;;;;15.95;75.61;101966.78;5050281;28;20055;-57
2022/08/31 01:24:49;;;;;;;16.60;9.90;;;;;;;15.95;75.80;101971.50;5050466;28;20112;-59
2022/08/31 01:27:17;;;;;;;17.10;9.70;;;;;;;15.90;76.00;101966.88;5050922;28;20028;-59
2022/08/31 01:29:42;;;;;;;14.90;9.10;;;;;;;15.90;75.83;101970.50;5050018;28;20086;-58
2022/08/31 01:32:08;;;;;;;15.82;9.30;;;;;;;15.88;75.93;101969.16;5050244;28;20024;-58
2022/08/31 01:34:34;;;;;;;15.70;9.20;;;;;;;15.84;76.14;101968.97;5049517;28;20167;-59
2022/08/31 01:36:59;;;;;;;13.85;9.30;;;;;;;15.83;76.41;101972.03;5050394;28;20048;-60
2022/08/31 01:39:25;;;;;;;14.13;9.38;;;;;;;15.82;76.07;101975.97;5050178;28;20465;-59
2022/08/31 01:41:50;;;;;;;13.93;9.55;;;;;;;15.81;76.38;101977.09;5050170;28;20028;-58
2022/08/31 01:44:19;;;;;;;15.00;9.23;;;;;;;15.78;76.37;101972.97;5053541;28;20461;-59
2022/08/31 01:46:45;;;;;;;14.02;9.40;;;;;;;15.75;76.60;101973.59;5053390;28;20025;-59
2022/08/31 01:49:13;;;;;;;15.93;9.20;;;;;;;15.71;76.69;101965.03;5052735;28;20091;-59
2022/08/31 01:51:38;;;;;;;15.18;9.27;;;;;;;15.70;76.94;101963.38;5053193;28;20051;-58
2022/08/31 01:54:04;;;;;;;16.42;9.68;;;;;;;15.66;76.76;101973.53;5053976;28;20480;-60
2022/08/31 01:56:35;;;;;;;13.93;9.10;;;;;;;15.61;76.92;101962.47;5053609;28;20036;-59
2022/08/31 01:59:01;;;;;;;15.98;9.68;;;;;;;15.63;77.36;101979.72;5053528;28;20033;-59
2022/08/31 02:01:30;;;;;;;16.27;9.63;;;;;;;15.60;77.24;101974.78;5053388;28;20033;-60
2022/08/31 02:03:55;;;;;;;14.88;9.43;;;;;;;15.58;77.41;101977.06;5053347;28;20032;-59
2022/08/31 02:06:21;;;;;;;15.18;9.50;;;;;;;15.54;77.71;101967.66;5052893;28;20366;-59
2022/08/31 02:08:46;;;;;;;14.00;9.13;;;;;;;15.51;77.61;101973.84;5052686;28;20021;-58
2022/08/31 02:11:12;;;;;;;14.82;9.20;;;;;;;15.48;77.86;101968.94;5053168;28;20469;-60
2022/08/31 02:13:37;;;;;;;14.73;9.35;;;;;;;15.48;77.72;101974.50;5053210;28;20025;-60
2022/08/31 02:16:03;;;;;;;15.00;9.20;;;;;;;15.43;77.95;101969.88;5052608;28;20021;-58
2022/08/31 02:18:28;;;;;;;14.98;9.80;;;;;;;15.39;77.97;101975.25;5034259;28;20136;-59
2022/08/31 02:20:54;;;;;;;15.95;9.98;;;;;;;15.38;78.24;101981.09;5032860;28;20100;-58
2022/08/31 02:23:19;;;;;;;16.10;9.98;;;;;;;15.34;78.18;101983.69;5033155;28;20207;-60
2022/08/31 02:25:45;;;;;;;17.00;10.13;;;;;;;15.30;78.35;101982.69;5033505;28;20056;-60
2022/08/31 02:28:12;;;;;;;15.88;10.20;;;;;;;15.28;78.68;101984.94;5033325;28;20040;-59
2022/08/31 02:30:40;;;;;;;16.65;9.98;;;;;;;15.24;78.67;101978.34;5033450;28;20022;-60
2022/08/31 02:33:06;;;;;;;16.83;10.07;;;;;;;15.22;78.86;101992.59;5032836;28;20029;-59
2022/08/31 02:35:32;;;;;;;16.60;10.02;;;;;;;15.16;78.95;101990.22;5033076;28;20079;-60
2022/08/31 02:37:58;;;;;;;15.50;9.85;;;;;;;15.11;79.19;101983.59;5033119;28;20053;-60
2022/08/31 02:40:23;;;;;;;15.77;10.48;;;;;;;15.08;79.39;101984.22;5032182;28;20504;-59
2022/08/31 02:42:48;;;;;;;16.42;9.63;;;;;;;15.06;79.48;101986.50;5032815;28;20029;-59
2022/08/31 02:45:14;;;;;;;16.80;9.88;;;;;;;15.08;78.84;101984.22;5014991;28;20536;-60
2022/08/31 02:47:39;;;;;;;17.08;10.25;;;;;;;15.05;79.19;101984.03;5031876;28;20025;-60
2022/08/31 02:50:05;;;;;;;16.80;10.13;;;;;;;15.03;79.23;101983.50;5031540;28;20021;-59
2022/08/31 02:52:31;;;;;;;15.93;9.85;;;;;;;14.98;79.14;101988.03;5031862;28;20025;-59
2022/08/31 02:54:56;;;;;;;16.95;10.00;;;;;;;14.95;79.20;101982.25;5031335;28;20025;-59
2022/08/31 02:57:22;;;;;;;17.58;9.98;;;;;;;14.94;79.11;101983.38;5032427;28;20033;-59
2022/08/31 02:59:48;;;;;;;17.20;10.27;;;;;;;14.90;79.34;101982.38;5013670;28;20025;-59
2022/08/31 03:02:13;;;;;;;17.25;10.30;;;;;;;14.85;79.77;101988.84;5032295;28;20077;-60
2022/08/31 03:04:40;;;;;;;14.20;9.65;;;;;;;14.82;79.47;101976.38;5032041;28;20540;-59
2022/08/31 03:07:05;;;;;;;15.18;10.10;;;;;;;14.79;79.50;101976.13;5032563;28;20032;-60
2022/08/31 03:09:31;;;;;;;16.45;10.00;;;;;;;14.76;79.64;101982.34;5031553;28;20396;-60
2022/08/31 03:11:57;;;;;;;15.43;9.50;;;;;;;14.73;79.87;101974.59;5031939;28;20017;-60
2022/08/31 03:14:22;;;;;;;15.60;9.60;;;;;;;14.70;79.60;101976.03;5030852;28;20454;-57
2022/08/31 03:16:48;;;;;;;16.98;9.82;;;;;;;14.69;79.53;101974.38;5013236;28;20045;-60
2022/08/31 03:19:13;;;;;;;17.45;10.00;;;;;;;14.66;79.35;101972.16;5032340;28;20087;-59
2022/08/31 03:21:38;;;;;;;16.02;9.95;;;;;;;14.60;80.06;101978.97;5032072;28;20032;-59
2022/08/31 03:24:04;;;;;;;16.08;9.77;;;;;;;14.60;79.37;101976.19;5032078;28;20036;-58
2022/08/31 03:26:29;;;;;;;15.90;10.40;;;;;;;14.54;79.67;101977.44;5031909;28;20041;-58
2022/08/31 03:28:54;;;;;;;16.55;10.52;;;;;;;14.51;79.72;101976.06;5032304;28;20108;-59
2022/08/31 03:31:23;;;;;;;16.50;10.30;;;;;;;14.47;80.02;101977.81;5030608;28;20021;-58
2022/08/31 03:33:49;;;;;;;17.10;10.38;;;;;;;14.44;79.91;101981.19;5031303;28;20053;-58
2022/08/31 03:36:14;;;;;;;16.40;9.98;;;;;;;14.40;79.87;101974.59;5031235;28;20465;-60
2022/08/31 03:38:40;;;;;;;15.75;9.95;;;;;;;14.42;79.56;101977.88;5030776;28;20503;-57
2022/08/31 03:41:05;;;;;;;17.13;10.27;;;;;;;14.37;79.72;101983.56;5030828;28;20029;-58
2022/08/31 03:43:31;;;;;;;15.65;9.85;;;;;;;14.33;79.75;101970.22;5030633;28;20029;-58
2022/08/31 03:45:56;;;;;;;15.88;9.93;;;;;;;14.30;79.54;101979.22;5030832;28;20026;-58
2022/08/31 03:48:21;;;;;;;15.63;9.70;;;;;;;14.28;79.30;101977.84;5031467;28;20111;-58
2022/08/31 03:50:47;;;;;;;16.23;9.73;;;;;;;14.28;79.27;101989.81;5032086;28;20025;-58
2022/08/31 03:53:12;;;;;;;15.93;9.50;;;;;;;14.26;79.08;101977.34;5030956;28;20036;-60
2022/08/31 03:55:40;;;;;;;16.23;9.30;;;;;;;14.24;78.75;101985.16;5031607;28;20053;-59
2022/08/31 03:58:06;;;;;;;16.52;9.18;;;;;;;14.21;78.74;101989.38;5031146;28;20102;-59
2022/08/31 04:00:32;;;;;;;13.65;9.40;;;;;;;14.18;78.35;101985.22;5031339;28;20503;-59
2022/08/31 04:02:58;;;;;;;15.45;9.07;;;;;;;14.15;78.55;101987.78;5030999;28;20065;-60
2022/08/31 04:05:28;;;;;;;14.90;9.45;;;;;;;14.11;78.46;101987.56;5031298;28;20032;-59
2022/08/31 04:07:54;;;;;;;15.68;9.45;;;;;;;14.10;78.01;101985.09;5030959;28;20049;-58
2022/08/31 04:10:21;;;;;;;14.82;9.10;;;;;;;14.09;78.22;101987.03;5030202;28;20025;-57
2022/08/31 04:12:48;;;;;;;14.07;9.15;;;;;;;14.02;78.26;101983.81;5030634;28;20059;-59
2022/08/31 04:15:14;;;;;;;16.30;9.90;;;;;;;14.03;78.09;101988.25;5030758;28;20424;-60
2022/08/31 04:17:39;;;;;;;15.23;9.52;;;;;;;13.98;77.88;101985.56;5031147;28;20160;-59
2022/08/31 04:20:05;;;;;;;14.75;9.23;;;;;;;13.93;77.94;101982.84;5030634;28;20147;-61
2022/08/31 04:22:31;;;;;;;14.18;9.25;;;;;;;13.93;77.72;101988.41;5030745;28;20141;-58
2022/08/31 04:24:56;;;;;;;15.98;9.48;;;;;;;13.88;77.79;101986.53;5030384;28;20180;-60
2022/08/31 04:27:22;;;;;;;15.05;9.60;;;;;;;13.89;77.72;101993.75;5030321;28;20104;-59
2022/08/31 04:29:47;;;;;;;15.27;9.60;;;;;;;13.86;77.95;101988.78;5030753;28;20431;-59
2022/08/31 04:32:12;;;;;;;15.90;9.55;;;;;;;13.83;77.98;101992.19;5030701;28;20187;-59
2022/08/31 04:34:38;;;;;;;16.58;9.65;;;;;;;13.75;77.61;101985.34;5012891;28;20261;-59
2022/08/31 04:37:03;;;;;;;16.23;9.35;;;;;;;13.76;77.72;101995.34;5030417;28;20180;-59
2022/08/31 04:39:28;;;;;;;14.63;9.50;;;;;;;13.73;77.69;101993.97;5029788;28;20021;-59
2022/08/31 04:41:54;;;;;;;15.10;9.55;;;;;;;13.76;77.61;101995.34;5029916;28;20037;-59
2022/08/31 04:44:19;;;;;;;18.95;10.27;;;;;;;13.69;77.91;102006.00;5029858;28;20112;-60
2022/08/31 04:46:44;;;;;;;15.10;10.20;;;;;;;13.69;77.38;102006.00;5030342;28;20559;-60
2022/08/31 04:49:10;;;;;;;17.08;10.10;;;;;;;13.67;77.04;102009.06;5029766;28;20120;-60
2022/08/31 04:51:37;;;;;;;20.33;10.50;;;;;;;13.57;77.35;101998.94;5030884;28;20029;-60
2022/08/31 04:54:05;;;;;;;15.82;10.10;;;;;;;13.63;76.64;102005.25;5029836;28;20041;-60
2022/08/31 04:56:34;;;;;;;16.05;10.25;;;;;;;13.56;76.44;102002.81;5030476;28;20441;-60
2022/08/31 04:59:02;;;;;;;18.08;9.95;;;;;;;13.64;76.62;102017.19;5029998;28;20076;-60
2022/08/31 05:01:31;;;;;;;14.82;10.05;;;;;;;13.62;76.41;102005.53;5030238;28;20037;-60
2022/08/31 05:03:58;;;;;;;16.10;9.88;;;;;;;13.59;76.06;102012.53;5029723;28;20092;-60
2022/08/31 05:06:26;;;;;;;15.43;9.88;;;;;;;13.51;76.16;102002.06;5030519;28;20026;-60
2022/08/31 05:08:56;;;;;;;14.88;9.45;;;;;;;13.56;76.13;102008.38;5012552;28;20025;-58
2022/08/31 05:11:23;;;;;;;15.98;10.00;;;;;;;13.59;75.38;102004.19;5030538;28;20052;-60
2022/08/31 05:13:48;;;;;;;15.23;9.85;;;;;;;13.55;75.03;101998.38;5029490;28;20025;-59
2022/08/31 05:16:15;;;;;;;14.85;9.43;;;;;;;13.58;74.88;102008.06;5030478;28;20043;-59
2022/08/31 05:18:43;;;;;;;14.35;9.07;;;;;;;13.54;74.59;102013.41;5033592;28;20469;-58
2022/08/31 05:21:13;;;;;;;13.38;8.98;;;;;;;13.54;74.42;102012.59;5034516;28;20100;-60
2022/08/31 05:23:39;;;;;;;13.23;9.05;;;;;;;13.55;74.35;102023.41;5034255;28;20111;-60
2022/08/31 05:26:06;;;;;;;14.68;9.20;;;;;;;13.54;74.04;102018.16;5033208;28;20041;-58
2022/08/31 05:28:35;;;;;;;14.65;8.75;;;;;;;13.58;73.95;102024.75;5015757;28;20061;-59
2022/08/31 05:31:02;;;;;;;13.40;8.80;;;;;;;13.63;74.45;102024.72;5033904;28;20034;-59
2022/08/31 05:33:28;;;;;;;13.55;8.80;;;;;;;13.60;73.99;102028.06;5033671;28;20115;-60
2022/08/31 05:35:54;;;;;;;14.73;9.30;;;;;;;13.63;73.49;102035.00;5034190;28;20033;-60
2022/08/31 05:38:19;;;;;;;14.35;9.10;;;;;;;13.64;73.09;102037.50;5034468;28;20033;-61
2022/08/31 05:40:52;;;;;;;15.52;8.68;;;;;;;13.69;72.84;102029.06;5034248;28;20120;-59
2022/08/31 05:43:18;;;;;;;14.48;8.75;;;;;;;13.63;72.92;102030.28;5034051;28;20030;-59
2022/08/31 05:45:44;;;;;;;13.68;8.82;;;;;;;13.68;72.90;102029.38;5034286;28;20059;-61
2022/08/31 05:48:09;;;;;;;13.70;9.20;;;;;;;13.69;72.56;102028.25;5033782;28;20120;-60
2022/08/31 05:50:35;;;;;;;15.38;8.73;;;;;;;13.73;72.22;102035.69;5033933;28;20032;-59
2022/08/31 05:53:02;;;;;;;13.70;8.75;;;;;;;13.78;72.01;102036.75;5034047;28;20025;-60
2022/08/31 05:55:27;;;;;;;13.88;8.38;;;;;;;13.82;71.81;102033.06;5033709;28;20037;-60
2022/08/31 05:57:53;;;;;;;12.43;8.77;;;;;;;13.88;71.70;102028.25;5033811;28;20022;-60
2022/08/31 06:00:18;;;;;;;13.95;9.07;;;;;;;13.89;71.45;102027.94;5033843;28;20116;-60
2022/08/31 06:02:43;;;;;;;16.40;9.20;;;;;;;13.87;70.96;102041.34;5033866;28;20188;-59
2022/08/31 06:05:09;;;;;;;16.73;9.10;;;;;;;13.87;71.13;102023.81;5033709;28;20067;-59
2022/08/31 06:07:34;;;;;;;15.93;8.85;;;;;;;13.93;70.62;102028.19;5033758;28;20511;-60
2022/08/31 06:10:00;;;;;;;14.90;8.77;;;;;;;13.89;70.31;102027.94;5025381;28;20079;-59
2022/08/31 06:12:25;;;;;;;12.88;7.97;;;;;;;13.97;69.99;102034.81;5031864;28;20026;-59
2022/08/31 06:14:52;;;;;;;15.50;8.32;;;;;;;13.98;70.26;102030.91;5032925;28;20029;-59
2022/08/31 06:17:18;;;;;;;13.82;8.40;;;;;;;14.05;69.65;102036.09;5032828;28;20354;-60
2022/08/31 06:19:43;;;;;;;14.27;8.38;;;;;;;14.07;68.87;102033.00;5032063;28;20025;-60
2022/08/31 06:22:08;;;;;;;12.02;8.63;;;;;;;14.09;69.20;102034.34;5031507;28;20548;-60
2022/08/31 06:24:35;;;;;;;13.73;8.27;;;;;;;14.13;69.02;102035.41;5031540;28;20080;-60
2022/08/31 06:27:02;;;;;;;12.32;8.45;;;;;;;14.19;68.85;102047.28;5031296;28;20120;-59
2022/08/31 06:29:30;;;;;;;16.65;8.60;;;;;;;14.28;68.84;102039.06;5032178;28;20342;-60
2022/08/31 06:31:55;;;;;;;13.13;8.00;;;;;;;14.33;67.95;102044.56;5031211;28;20029;-60
2022/08/31 06:34:22;;;;;;;12.80;8.38;;;;;;;14.34;67.32;102041.47;5031378;28;20098;-60
2022/08/31 06:36:47;;;;;;;12.85;8.30;;;;;;;14.41;67.33;102049.44;5031475;28;20025;-60
2022/08/31 06:39:13;;;;;;;15.45;8.60;;;;;;;14.47;67.34;102055.78;5031445;28;20041;-60
2022/08/31 06:41:39;;;;;;;12.27;8.10;;;;;;;14.57;66.85;102063.13;5031310;28;20108;-60
2022/08/31 06:44:07;;;;;;;11.10;7.90;;;;;;;14.54;66.44;102058.97;5031524;28;20033;-59
2022/08/31 06:46:35;;;;;;;13.55;8.30;;;;;;;14.66;65.71;102070.53;5032033;28;20026;-60
2022/08/31 06:49:01;;;;;;;12.68;8.30;;;;;;;14.68;65.46;102072.19;5031942;28;20130;-60
2022/08/31 06:51:27;;;;;;;13.07;8.00;;;;;;;14.75;65.86;102069.81;5014440;28;20084;-60
2022/08/31 06:53:52;;;;;;;14.88;8.02;;;;;;;14.85;65.24;102077.16;5032015;28;20079;-61
2022/08/31 06:56:21;;;;;;;12.80;8.07;;;;;;;14.82;65.27;102061.88;5031969;28;20477;-60
2022/08/31 06:58:47;;;;;;;13.38;8.48;;;;;;;14.93;64.83;102074.50;5014326;28;20079;-60
2022/08/31 07:01:17;;;;;;;13.48;8.30;;;;;;;14.83;64.62;102063.53;5031917;28;20096;-56
2022/08/31 07:03:44;;;;;;;12.95;8.30;;;;;;;14.97;64.63;102083.91;5014085;28;20029;-59
2022/08/31 07:06:15;;;;;;;13.25;8.10;;;;;;;14.91;64.69;102070.38;5031978;28;20469;-60
2022/08/31 07:08:41;;;;;;;12.98;8.38;;;;;;;15.04;64.05;102082.69;5028028;28;20052;-59
2022/08/31 07:11:12;;;;;;;13.60;8.40;;;;;;;15.15;64.03;102084.16;5010204;28;20030;-59
2022/08/31 07:13:38;;;;;;;13.15;8.30;;;;;;;15.19;63.80;102081.59;5009898;28;20021;-59
2022/08/31 07:16:10;;;;;;;13.52;8.30;;;;;;;15.19;64.06;102082.41;5009715;28;20072;-58
2022/08/31 07:18:35;;;;;;;15.82;8.60;;;;;;;15.22;64.00;102080.94;4975173;28;1016476;-59
2022/08/31 07:21:08;;;;;;;12.32;8.48;;;;;;;15.25;64.39;102083.97;5010682;28;20452;-60
2022/08/31 07:23:33;;;;;;;13.83;8.17;;;;;;;15.30;64.38;102083.06;5010378;28;20462;-59
2022/08/31 07:26:03;;;;;;;14.75;8.70;;;;;;;15.31;64.50;102081.06;5019464;28;20338;-59
2022/08/31 07:28:28;;;;;;;12.98;8.65;;;;;;;15.41;64.25;102087.25;5022078;28;20033;-60
2022/08/31 07:30:54;;;;;;;13.73;8.38;;;;;;;15.47;64.14;102081.59;5024384;28;20028;-59
2022/08/31 07:33:19;;;;;;;14.93;8.82;;;;;;;15.49;64.04;102085.72;5025426;28;20056;-59
2022/08/31 07:35:44;;;;;;;13.70;8.80;;;;;;;15.50;63.37;102081.81;5026056;28;20033;-58
2022/08/31 07:43:38;;;;;;;14.60;8.80;;;;;;;15.56;63.77;102082.53;5030190;28;20052;-60
2022/08/31 07:46:03;;;;;;;14.18;8.73;;;;;;;15.63;63.76;102080.16;5030080;28;20034;-60
2022/08/31 07:48:28;;;;;;;15.95;8.52;;;;;;;15.71;63.61;102090.56;5030035;28;20504;-58
2022/08/31 07:50:55;;;;;;;13.30;8.68;;;;;;;15.70;63.84;102079.75;5026338;28;20183;-60
2022/08/31 07:53:23;;;;;;;13.10;8.30;;;;;;;15.84;63.57;102083.34;5003252;28;20530;-59
2022/08/31 07:55:54;;;;;;;14.05;8.80;;;;;;;15.84;63.73;102091.72;5029881;28;20049;-59
2022/08/31 07:58:21;;;;;;;12.60;8.77;;;;;;;15.93;63.09;102089.03;5029883;28;20036;-59
2022/08/31 08:00:48;;;;;;;13.50;9.00;;;;;;;15.99;63.54;102090.56;5029912;28;20160;-59
2022/08/31 08:03:13;;;;;;;13.52;8.88;;;;;;;16.10;63.80;102093.97;5029743;28;20025;-59
2022/08/31 08:05:40;;;;;;;13.95;8.82;;;;;;;16.25;63.61;102092.78;5029779;28;20068;-59
2022/08/31 08:08:07;;;;;;;12.93;8.90;;;;;;;16.35;62.76;102098.13;5029776;28;20029;-56
2022/08/31 08:10:33;;;;;;;13.80;8.63;;;;;;;16.49;62.98;102095.28;5029391;28;20367;-60
2022/08/31 08:13:04;;;;;;;14.52;9.20;;;;;;;16.53;62.53;102087.13;5029589;28;20033;-59
2022/08/31 08:15:32;;;;;;;15.80;9.20;;;;;;;16.59;62.82;102098.97;5029483;28;20032;-58
2022/08/31 08:17:58;;;;;;;16.17;9.15;;;;;;;16.73;62.59;102096.13;5029133;28;20072;-60
2022/08/31 08:20:23;;;;;;;14.82;8.93;;;;;;;16.80;62.09;102085.34;5029522;28;20140;-60
2022/08/31 08:22:49;;;;;;;17.85;9.23;;;;;;;16.90;61.46;102095.41;5029438;28;20512;-60
2022/08/31 08:25:15;;;;;;;15.07;9.30;;;;;;;16.95;61.68;102093.34;5029397;28;20025;-60
2022/08/31 08:27:41;;;;;;;16.50;9.15;;;;;;;16.97;61.63;102093.03;5027779;28;20035;-59
2022/08/31 08:30:11;;;;;;;14.45;9.07;;;;;;;17.09;62.00;102096.06;5029578;28;20123;-59
2022/08/31 08:32:37;;;;;;;14.90;8.55;;;;;;;17.22;61.47;102097.09;5011633;28;20034;-60
2022/08/31 08:35:03;;;;;;;15.70;8.55;;;;;;;17.29;60.44;102108.66;5029094;28;20095;-59
2022/08/31 08:37:28;;;;;;;15.77;8.57;;;;;;;17.31;59.99;102106.38;5029316;28;20026;-60
2022/08/31 08:39:54;;;;;;;15.27;8.50;;;;;;;17.29;60.16;102105.84;5029413;28;20541;-60
2022/08/31 08:42:21;;;;;;;16.95;8.77;;;;;;;17.39;60.34;102106.72;5026525;28;20026;-60
2022/08/31 08:44:47;;;;;;;15.93;9.20;;;;;;;17.39;60.05;102099.16;5009610;28;20030;-60
2022/08/31 08:47:21;;;;;;;16.17;9.00;;;;;;;17.35;60.34;102108.53;5009288;28;20026;-59
2022/08/31 08:49:50;;;;;;;14.43;8.75;;;;;;;17.36;60.60;102108.19;5009440;28;20030;-59
2022/08/31 08:52:23;;;;;;;18.90;9.23;;;;;;;17.37;61.10;102095.88;5012766;28;20094;-59
2022/08/31 08:54:50;;;;;;;18.77;9.57;;;;;;;17.54;60.75;102108.25;5033243;28;20338;-61
2022/08/31 08:57:21;;;;;;;16.15;8.80;;;;;;;17.57;60.40;102094.44;5033157;28;20063;-58
2022/08/31 08:59:48;;;;;;;15.27;8.98;;;;;;;17.69;60.49;102090.22;5015445;28;20532;-59
2022/08/31 09:02:19;;;;;;;15.35;8.70;;;;;;;17.74;60.42;102096.50;5033386;28;20053;-60
2022/08/31 09:05:16;;;;;;;14.77;8.57;;;;;;;17.80;60.16;102099.16;5033102;28;20029;-59
2022/08/31 09:08:00;;;;;;;14.68;8.50;;;;;;;17.87;59.76;102096.69;5033302;28;20029;-60
2022/08/31 09:10:55;;;;;;;;;;;;;;;18.00;59.78;102087.34;5033672;28;20113;-60
2022/08/31 09:13:35;;;;;;;14.70;8.93;;;;;;;18.27;59.31;102091.03;4979155;28;20010;-58
2022/08/31 09:16:39;;;;;;;17.17;8.95;;;;;;;18.41;59.24;102082.47;5033339;28;20025;-60
2022/08/31 09:19:09;;;;;;;15.07;8.68;;;;;;;18.61;58.72;102089.34;5032968;28;20059;-60
2022/08/31 09:21:40;;;;;;;14.73;8.80;;;;;;;18.74;58.34;102097.94;5032999;28;20392;-59
2022/08/31 09:24:09;;;;;;;16.02;8.90;;;;;;;18.82;58.94;102083.06;5033277;28;20045;-59
2022/08/31 09:27:10;;;;;;;17.63;9.55;;;;;;;18.92;57.95;102087.47;5030984;28;20029;-59
2022/08/31 09:29:42;;;;;;;17.60;9.50;;;;;;;18.93;58.11;102091.97;5032829;28;20040;-60
2022/08/31 09:32:16;;;;;;;16.80;9.37;;;;;;;19.02;57.50;102089.97;5032736;28;20048;-59
2022/08/31 09:34:52;;;;;;;16.35;9.20;;;;;;;19.18;57.71;102084.66;5032902;28;20121;-59
2022/08/31 09:37:24;;;;;;;16.83;9.20;;;;;;;19.25;57.76;102090.56;5014885;28;20033;-59
2022/08/31 09:39:52;;;;;;;19.15;9.68;;;;;;;19.39;57.32;102092.31;5032676;28;20087;-60
2022/08/31 09:42:30;;;;;;;18.67;9.88;;;;;;;19.41;57.17;102076.78;5032419;28;20315;-61
2022/08/31 09:45:10;;;;;;;15.25;9.38;;;;;;;19.42;56.84;102089.66;5032641;28;20063;-59
2022/08/31 09:47:52;;;;;;;17.65;9.52;;;;;;;19.43;56.88;102091.31;5032467;28;20480;-59
2022/08/31 09:50:25;;;;;;;16.17;9.60;;;;;;;19.57;56.13;102084.63;5032467;28;20037;-59
2022/08/31 09:56:12;;;;;;;18.05;10.00;;;;;;;20.24;55.01;102090.53;5032382;28;20506;-59
2022/08/31 09:58:45;;;;;;;19.48;9.50;;;;;;;20.40;54.47;102085.09;5032450;28;20038;-59
2022/08/31 10:01:16;;;;;;;17.60;10.00;;;;;;;20.45;54.65;102084.06;5032294;28;20033;-60
2022/08/31 10:03:43;;;;;;;19.05;9.85;;;;;;;20.58;53.84;102083.78;5032138;28;20147;-59
2022/08/31 10:06:24;;;;;;;19.02;9.93;;;;;;;20.65;54.34;102085.19;5032500;28;20037;-60
2022/08/31 10:08:58;;;;;;;17.27;9.73;;;;;;;20.81;53.82;102086.25;5032185;28;20052;-57
2022/08/31 10:11:28;;;;;;;16.98;9.65;;;;;;;20.93;53.76;102074.19;5031925;28;20029;-60
2022/08/31 10:14:03;;;;;;;17.40;9.40;;;;;;;20.95;54.14;102074.69;5031537;28;20489;-60
2022/08/31 10:16:37;;;;;;;18.92;9.65;;;;;;;21.05;53.94;102073.41;5031960;28;20084;-60
2022/08/31 10:19:10;;;;;;;18.58;9.80;;;;;;;21.24;53.88;102072.88;5031658;28;20052;-59
2022/08/31 10:21:52;;;;;;;19.45;9.85;;;;;;;21.12;53.25;102067.22;5031682;28;20041;-59
2022/08/31 10:24:26;;;;;;;19.13;9.90;;;;;;;21.09;53.72;102062.25;5031991;28;20432;-60
2022/08/31 10:27:16;;;;;;;19.15;10.13;;;;;;;21.10;54.22;102063.91;5029804;28;20032;-60
2022/08/31 10:30:01;;;;;;;18.75;10.52;;;;;;;21.18;53.80;102063.81;5031083;28;20401;-60
2022/08/31 10:32:59;;;;;;;17.83;10.07;;;;;;;21.41;54.08;102073.81;5030556;28;20551;-60
2022/08/31 10:35:41;;;;;;;18.50;10.40;;;;;;;21.61;53.26;102063.63;4926238;28;20038;-58
2022/08/31 10:38:24;;;;;;;19.17;10.02;;;;;;;21.86;52.67;102064.41;5031402;28;20029;-61
2022/08/31 10:41:04;;;;;;;18.35;9.98;;;;;;;22.13;52.21;102062.84;5031525;28;20030;-60
2022/08/31 10:43:52;;;;;;;18.38;9.55;;;;;;;22.19;52.27;102062.56;5031295;28;20062;-60
2022/08/31 10:46:18;;;;;;;17.58;10.52;;;;;;;22.25;51.87;102061.97;5031329;28;20404;-60
2022/08/31 10:48:52;;;;;;;16.85;9.70;;;;;;;22.34;52.23;102053.34;5031229;28;20374;-59
2022/08/31 10:51:27;;;;;;;17.02;10.07;;;;;;;22.41;52.01;102055.59;5013397;28;20120;-59
2022/08/31 10:54:28;;;;;;;18.23;10.18;;;;;;;22.46;51.13;102060.16;5031243;28;20029;-60
2022/08/31 10:57:06;;;;;;;16.35;10.13;;;;;;;22.56;51.22;102051.19;5031295;28;20056;-61
2022/08/31 10:59:47;;;;;;;17.88;10.20;;;;;;;22.71;50.36;102046.75;5031144;28;20041;-58
2022/08/31 11:02:31;;;;;;;17.77;10.20;;;;;;;22.87;50.51;102060.91;5031065;28;20041;-59
2022/08/31 11:05:24;;;;;;;19.42;9.88;;;;;;;22.80;49.90;102050.25;5030952;28;20068;-59
2022/08/31 11:08:06;;;;;;;18.20;10.15;;;;;;;22.62;50.43;102049.75;5031050;28;20399;-60
2022/08/31 11:10:48;;;;;;;17.50;10.32;;;;;;;22.50;50.36;102047.00;5031250;28;20036;-59
2022/08/31 11:13:34;;;;;;;17.25;10.43;;;;;;;22.56;50.39;102054.84;5030756;28;20040;-61
2022/08/31 11:16:20;;;;;;;20.00;10.30;;;;;;;22.68;50.32;102051.13;5030017;28;20026;-60
2022/08/31 11:19:06;;;;;;;17.95;9.98;;;;;;;22.87;49.90;102050.41;5030807;28;20041;-60
2022/08/31 11:21:51;;;;;;;19.17;10.10;;;;;;;22.87;49.41;102063.72;5006786;28;20041;-60
2022/08/31 11:24:35;;;;;;;19.45;10.50;;;;;;;22.69;49.84;102058.41;5012975;28;20088;-60
2022/08/31 11:27:43;;;;;;;17.75;10.18;;;;;;;22.72;50.25;102054.84;4995245;28;20057;-60
2022/08/31 11:30:28;;;;;;;16.35;10.00;;;;;;;22.69;50.32;102040.66;4934820;28;20037;-61
2022/08/31 11:32:53;;;;;;;18.13;10.20;;;;;;;22.77;49.83;102045.31;5012808;28;20057;-60
2022/08/31 11:36:09;;;;;;;19.63;10.30;;;;;;;22.97;50.14;102053.88;5012696;28;20054;-59
2022/08/31 11:38:53;;;;;;;20.27;10.30;;;;;;;23.08;48.99;102035.25;4994170;28;20136;-59
2022/08/31 11:41:45;;;;;;;18.15;10.20;;;;;;;23.27;49.28;102036.53;5012157;28;20045;-60